DAUA

Touat Cheikh Sidi Mohamed Belkebir Airport

Algeria
METAR DAUA 171800Z 02015KT 5000 DRSA NSC 29/09 Q1008
Observed Flight Rules
Oct-17 @ 18:00 UTC (an hour ago) Marginal Visual Flight Rules
Wind Visibility Clouds Conditions
20° at 15 knots 5,005 meters
  • Clear skies
  • Low drifting
  • Sand
Temperatures Readings
Current 29°C / 84°F
Dewpoint 9°C / 48°F
Humidity 29%
Altimeter 29.76" Hg
Pressure 1008 hPa
Elevation 263
METAR DAUA 171800Z 02015KT 5000 DRSA NSC 29/09 Q1008
Observed Flight Rules
Oct-17 @ 18:00 UTC
(an hour ago)
MVFR
Wind Visibility
20° at 15 knots 5,005 meters
Clouds
  • Clear skies
Conditions
  • Low drifting
  • Sand
Temperature Dewpoint
29°C / 84°F 9°C / 48°F
Humidity Altimeter Pressure
29% 29.76" Hg 1008 hPa